Saturday, January 31, 2015
13:06 UTC
  |  Log In   |  Register Free
Airport Search:

Big Bear City Airport
(KL35)

Big Bear City Airport Diagram
No Airport Diagram Available

FAA data valid effective January 08, 2015 - March 05, 2015 (unless otherwise noted).

 
 
 
 
 
 
 
 
 
 
 
 
 
 

Current Aviation Weather for Big Bear City Airport (KL35)

The most recent METAR observation for KL35 was updated at: 1216
METAR Summary (Translated METAR)
KL35
311155Z AUTO 00000KT 7SM DZ OVC012 01/00 A2989 RMK AO2
KSBD
310452Z 00000KT 10SM BKN090 12/08 A2988
(21.4 nm SW from KL35)
KAPV
191256Z AUTO 05004KT 10SM FEW075 SCT090 BKN110 18/18 A2996 RMK AO2 SLP144 T01830178 $
(24.8 nm NW from KL35)
TAF
No TAF information found within 50 nm of KSBD
  Airport Weather Conditions for KL35

 Current Weather at L35
34° F
Overcast
West winds at 6.9 mph
L35 NOAA Radar

Pressure: 29.89 in
Humidity: 100%
Wind: West at 6.9 MPH (6 KT)
Dew Point: 33.8°F
Visibility: 10.00 mi


Airport Weather Forecast for KL35

Translated METAR and TAF for KSBD
Translated METAR for KSBD (1306 UTC 31 January 2015)
found at http://aviationweather.gov/adds/metars/
 
You entered "KSBD"

Sorry, either there are no data available for your request or you did not enter any valid ICAO airport abbreviations.

See stations.txt for a list of known METAR and TAF locations. Then go back to the ADDS METARs or TAFs page and try again
 
Please try again and, if problems persist, then send mail to ncep.awc.adds@noaa.gov

Find All Airport Services Find A Hotel Find A Rental Car Find A Golf Course Find A Restaurant $100 Hamburger



FBO's on the Field
FBO Company Facility Photos Services Transportation Aviation Fuel Prices: Prices include tax
Catering Weather Repair Courtesy Rental Type 100LL JetA JetA+ MOGAS 8087
 
Big Bear Airport

This FBO has not yet been rated
FS:Epic
Last Updated: Jan-21
Login to update fuel prices
SS:
Contact Big Bear AirportMore FBO Information
 
Add another FBO Facility Photos Catering Weather Repair Courtesy Rental Type 100LL JetA JetA+ MOGAS 8087
Services Transportation Aviation Fuel Prices: Prices include tax


model-print
model-print
model-print
model-print